createdAt,value
2023-05-19T00:00:15.013Z,99122.31
2023-05-19T00:03:05.335Z,99126.34
2023-05-19T00:05:34.785Z,99119.25
2023-05-19T00:08:04.523Z,99124.13
2023-05-19T00:10:33.895Z,99130.03
2023-05-19T00:13:03.029Z,99127.44
2023-05-19T00:15:32.546Z,99129.94
2023-05-19T00:18:01.235Z,99127.00
2023-05-19T00:20:31.315Z,99132.09
2023-05-19T00:22:59.949Z,99132.25
2023-05-19T00:25:28.511Z,99127.28
2023-05-19T00:27:58.690Z,99123.97
2023-05-19T00:30:27.446Z,99120.69
2023-05-19T00:32:56.021Z,99110.13
2023-05-19T00:35:24.706Z,99110.13
2023-05-19T00:37:54.424Z,99108.75
2023-05-19T00:40:24.173Z,99107.69
2023-05-19T00:42:52.496Z,99105.09
2023-05-19T00:45:21.154Z,99101.75
2023-05-19T00:47:50.127Z,99106.91
2023-05-19T00:50:18.682Z,99095.09
2023-05-19T00:52:47.286Z,99099.81
2023-05-19T00:55:17.453Z,99103.81
2023-05-19T00:57:46.411Z,99102.44
2023-05-19T01:00:16.472Z,99100.78
2023-05-19T01:02:44.798Z,99100.84
2023-05-19T01:05:14.258Z,99088.59
2023-05-19T01:07:42.747Z,99099.19
2023-05-19T01:10:12.382Z,99089.47
2023-05-19T01:12:42.294Z,99090.03
2023-05-19T01:15:12.152Z,99082.91
2023-05-19T01:17:44.999Z,99077.72
2023-05-19T01:20:18.575Z,99076.88
2023-05-19T01:23:15.758Z,99074.94
2023-05-19T01:26:11.440Z,99069.44
2023-05-19T01:29:05.224Z,99070.03
2023-05-19T01:31:35.511Z,99073.06
2023-05-19T01:34:06.059Z,99080.53
2023-05-19T01:36:35.368Z,99069.09
2023-05-19T01:39:04.523Z,99064.66
2023-05-19T01:41:34.326Z,99067.66
2023-05-19T01:44:02.722Z,99069.38
2023-05-19T01:46:31.502Z,99066.38
2023-05-19T01:49:01.705Z,99068.91
2023-05-19T01:51:31.654Z,99070.19
2023-05-19T01:53:59.980Z,99071.66
2023-05-19T01:56:35.931Z,99073.34
2023-05-19T01:59:10.441Z,99065.75
2023-05-19T02:01:43.279Z,99059.50
2023-05-19T02:04:21.622Z,99058.47
2023-05-19T02:06:57.292Z,99062.78
2023-05-19T02:09:31.108Z,99057.03
2023-05-19T02:12:04.388Z,99053.56
2023-05-19T02:14:35.638Z,99052.44
2023-05-19T02:17:06.146Z,99050.19
2023-05-19T02:19:40.688Z,99040.66
2023-05-19T02:22:09.901Z,99042.81
2023-05-19T02:24:38.159Z,99039.06
2023-05-19T02:27:07.736Z,99036.78
2023-05-19T02:29:36.083Z,99035.25
2023-05-19T02:32:04.982Z,99032.69
2023-05-19T02:34:33.930Z,99028.84
2023-05-19T02:37:03.877Z,99038.84
2023-05-19T02:39:35.440Z,99038.00
2023-05-19T02:42:04.148Z,99046.50
2023-05-19T02:44:32.704Z,99039.13
2023-05-19T02:47:01.302Z,99036.59
2023-05-19T02:49:30.948Z,99036.84
2023-05-19T02:52:00.310Z,99035.97
2023-05-19T02:54:30.391Z,99048.84
2023-05-19T02:56:59.533Z,99050.84
2023-05-19T02:59:28.119Z,99051.63
2023-05-19T03:01:57.814Z,99041.47
2023-05-19T03:04:26.301Z,99041.13
2023-05-19T03:06:55.261Z,99037.03
2023-05-19T03:09:23.583Z,99041.63
2023-05-19T03:11:53.464Z,99040.09
2023-05-19T03:14:24.103Z,99048.44
2023-05-19T03:16:53.269Z,99044.34
2023-05-19T03:19:21.814Z,99047.31
2023-05-19T03:21:50.918Z,99046.97
2023-05-19T03:24:19.384Z,99044.81
2023-05-19T03:26:47.931Z,99045.38
2023-05-19T03:29:18.226Z,99052.44
2023-05-19T03:31:46.933Z,99052.00
2023-05-19T03:34:15.362Z,99049.84
2023-05-19T03:36:45.276Z,99051.16
2023-05-19T03:39:13.605Z,99045.94
2023-05-19T03:41:42.440Z,99050.09
2023-05-19T03:44:10.705Z,99047.59
2023-05-19T03:46:40.850Z,99038.06
2023-05-19T03:49:09.181Z,99032.94
2023-05-19T03:51:37.804Z,99046.22
2023-05-19T03:54:07.006Z,99042.22
2023-05-19T03:56:35.612Z,99060.47
2023-05-19T03:59:06.421Z,99050.47
2023-05-19T04:01:35.107Z,99051.59
2023-05-19T04:04:05.233Z,99055.63
2023-05-19T04:06:33.993Z,99058.94
2023-05-19T04:09:05.077Z,99074.84
2023-05-19T04:11:33.877Z,99064.69
2023-05-19T04:14:02.232Z,99067.09
2023-05-19T04:16:30.959Z,99066.81
2023-05-19T04:18:59.464Z,99065.16
2023-05-19T04:21:29.543Z,99057.84
2023-05-19T04:24:00.229Z,99063.31
2023-05-19T04:26:31.227Z,99054.72
2023-05-19T04:28:59.584Z,99066.34
2023-05-19T04:31:28.855Z,99070.22
2023-05-19T04:33:57.382Z,99070.41
2023-05-19T04:36:25.991Z,99065.53
2023-05-19T04:39:02.379Z,99070.94
2023-05-19T04:41:30.961Z,99067.88
2023-05-19T04:43:59.530Z,99067.94
2023-05-19T04:46:30.158Z,99063.72
2023-05-19T04:49:01.353Z,99067.31
2023-05-19T04:51:31.578Z,99061.16
2023-05-19T04:54:01.621Z,99080.75
2023-05-19T04:56:30.323Z,99071.47
2023-05-19T04:58:59.275Z,99064.84
2023-05-19T05:01:28.056Z,99079.91
2023-05-19T05:03:59.273Z,99070.59
2023-05-19T05:06:28.647Z,99069.31
2023-05-19T05:08:57.885Z,99069.53
2023-05-19T05:11:28.526Z,99072.56
2023-05-19T05:13:58.318Z,99060.59
2023-05-19T05:16:28.418Z,99070.75
2023-05-19T05:18:57.578Z,99073.63
2023-05-19T05:21:26.845Z,99079.03
2023-05-19T05:23:55.930Z,99070.84
2023-05-19T05:26:24.928Z,99068.00
2023-05-19T05:28:54.746Z,99064.41
2023-05-19T05:31:23.871Z,99072.88
2023-05-19T05:33:52.310Z,99077.25
2023-05-19T05:36:21.322Z,99073.81
2023-05-19T05:38:49.626Z,99080.63
2023-05-19T05:41:18.189Z,99075.44
2023-05-19T05:43:46.493Z,99078.13
2023-05-19T05:46:16.423Z,99076.38
2023-05-19T05:48:45.644Z,99075.06
2023-05-19T05:51:14.811Z,99084.81
2023-05-19T05:53:46.437Z,99080.88
2023-05-19T05:56:17.121Z,99087.72
2023-05-19T05:58:45.322Z,99090.56
2023-05-19T06:01:13.902Z,99087.78
2023-05-19T06:03:45.205Z,99079.50
2023-05-19T06:06:14.553Z,99095.41
2023-05-19T06:08:43.230Z,99086.84
2023-05-19T06:11:12.104Z,99090.78
2023-05-19T06:13:41.551Z,99085.53
2023-05-19T06:16:10.375Z,99090.06
2023-05-19T06:18:38.725Z,99099.91
2023-05-19T06:21:10.409Z,99102.56
2023-05-19T06:23:38.643Z,99095.34
2023-05-19T06:26:07.239Z,99087.31
2023-05-19T06:28:35.635Z,99090.34
2023-05-19T06:31:04.756Z,99097.84
2023-05-19T06:33:33.088Z,99096.91
2023-05-19T06:36:01.765Z,99103.63
2023-05-19T06:38:31.876Z,99100.13
2023-05-19T06:41:00.472Z,99097.09
2023-05-19T06:43:29.198Z,99091.53
2023-05-19T06:45:57.879Z,99092.22
2023-05-19T06:48:26.505Z,99097.13
2023-05-19T06:50:56.154Z,99099.66
2023-05-19T06:53:24.511Z,99100.94
2023-05-19T06:55:59.829Z,99099.47
2023-05-19T06:58:29.003Z,99098.56
2023-05-19T07:00:57.658Z,99096.66
2023-05-19T07:03:26.216Z,99097.50
2023-05-19T07:05:55.142Z,99092.75
2023-05-19T07:08:23.432Z,99094.19
2023-05-19T07:10:51.992Z,99097.28
2023-05-19T07:13:21.563Z,99084.13
2023-05-19T07:15:50.124Z,99081.88
2023-05-19T07:18:18.363Z,99088.22
2023-05-19T07:20:47.105Z,99086.00
2023-05-19T07:23:17.220Z,99080.16
2023-05-19T07:25:46.142Z,99092.53
2023-05-19T07:28:14.338Z,99092.22
2023-05-19T07:30:45.055Z,99098.69
2023-05-19T07:33:13.300Z,99094.81
2023-05-19T07:35:41.962Z,99092.06
2023-05-19T07:38:10.382Z,99100.97
2023-05-19T07:40:39.237Z,99095.19
2023-05-19T07:43:07.413Z,99103.22
2023-05-19T07:45:36.233Z,99091.84
2023-05-19T07:48:06.122Z,99092.09
2023-05-19T07:50:34.814Z,99097.69
2023-05-19T07:53:03.307Z,99098.84
2023-05-19T07:55:32.084Z,99101.22
2023-05-19T07:58:00.656Z,99100.25
2023-05-19T08:00:29.368Z,99100.38
2023-05-19T08:02:58.207Z,99099.25
2023-05-19T08:05:28.318Z,99099.09
2023-05-19T08:07:57.726Z,99091.75
2023-05-19T08:10:26.366Z,99097.13
2023-05-19T08:12:54.896Z,99094.47
2023-05-19T08:15:23.653Z,99099.06
2023-05-19T08:17:51.904Z,99100.88
2023-05-19T08:20:22.741Z,99089.56
2023-05-19T08:22:52.450Z,99110.22
2023-05-19T08:25:21.478Z,99112.97
2023-05-19T08:27:49.732Z,99113.44
2023-05-19T08:30:18.295Z,99105.31
2023-05-19T08:32:47.249Z,99108.31
2023-05-19T08:35:15.971Z,99113.00
2023-05-19T08:37:44.245Z,99114.50
2023-05-19T08:40:18.390Z,99125.31
2023-05-19T08:42:46.917Z,99112.31
2023-05-19T08:45:15.578Z,99113.69
2023-05-19T08:47:46.988Z,99105.78
2023-05-19T08:50:19.092Z,99103.28
2023-05-19T08:52:53.432Z,99111.06
2023-05-19T08:55:34.312Z,99109.84
2023-05-19T08:58:03.257Z,99106.13
2023-05-19T09:00:32.669Z,99111.53
2023-05-19T09:03:17.501Z,99106.25
2023-05-19T09:05:47.596Z,99110.78
2023-05-19T09:08:16.284Z,99105.09
2023-05-19T09:10:46.362Z,99103.78
2023-05-19T09:13:15.091Z,99104.09
2023-05-19T09:15:43.616Z,99103.31
2023-05-19T09:18:13.128Z,99113.59
2023-05-19T09:20:43.487Z,99113.91
2023-05-19T09:23:14.927Z,99116.13
2023-05-19T09:25:52.044Z,99113.28
2023-05-19T09:28:27.415Z,99116.53
2023-05-19T09:31:03.175Z,99120.75
2023-05-19T09:33:32.184Z,99113.09
2023-05-19T09:36:01.319Z,99115.88
2023-05-19T09:38:29.738Z,99106.16
2023-05-19T09:41:01.103Z,99112.91
2023-05-19T09:43:30.427Z,99113.66
2023-05-19T09:46:01.602Z,99109.63
2023-05-19T09:48:30.673Z,99108.91
2023-05-19T09:50:59.352Z,99106.75
2023-05-19T09:53:27.878Z,99108.78
2023-05-19T09:55:58.868Z,99110.00
2023-05-19T09:58:32.233Z,99102.88
2023-05-19T10:01:01.348Z,99101.66
2023-05-19T10:03:29.951Z,99100.63
2023-05-19T10:05:59.060Z,99093.09
2023-05-19T10:08:30.054Z,99097.34
2023-05-19T10:10:58.635Z,99097.16
2023-05-19T10:13:28.449Z,99103.22
2023-05-19T10:15:59.258Z,99098.97
2023-05-19T10:18:29.960Z,99096.69
2023-05-19T10:20:59.170Z,99091.78
2023-05-19T10:23:27.694Z,99093.19
2023-05-19T10:25:57.895Z,99102.41
2023-05-19T10:28:32.189Z,99098.72
2023-05-19T10:31:01.811Z,99089.53
2023-05-19T10:33:53.102Z,99091.19
2023-05-19T10:36:35.966Z,99091.63
2023-05-19T10:39:08.209Z,99083.25
2023-05-19T10:41:43.988Z,99086.06
2023-05-19T10:44:24.822Z,99085.97
2023-05-19T10:46:55.007Z,99089.63
2023-05-19T10:49:24.737Z,99083.75
2023-05-19T10:51:54.315Z,99089.91
2023-05-19T10:54:40.921Z,99088.91
2023-05-19T10:57:10.044Z,99090.34
2023-05-19T10:59:40.040Z,99090.59
2023-05-19T11:02:10.052Z,99088.25
2023-05-19T11:04:49.499Z,99089.22
2023-05-19T11:07:21.818Z,99082.63
2023-05-19T11:09:52.679Z,99083.00
2023-05-19T11:12:24.721Z,99084.91
2023-05-19T11:14:56.126Z,99085.31
2023-05-19T11:17:27.553Z,99085.13
2023-05-19T11:19:57.314Z,99086.41
2023-05-19T11:22:27.048Z,99079.88
2023-05-19T11:24:56.661Z,99075.56
2023-05-19T11:27:27.974Z,99075.06
2023-05-19T11:29:59.467Z,99086.34
2023-05-19T11:32:29.997Z,99081.63
2023-05-19T11:34:59.430Z,99087.66
2023-05-19T11:37:29.048Z,99089.47
2023-05-19T11:39:57.357Z,99082.66
2023-05-19T11:42:26.021Z,99085.53
2023-05-19T11:44:57.845Z,99083.97
2023-05-19T11:47:26.701Z,99083.06
2023-05-19T11:49:56.892Z,99083.06
2023-05-19T11:52:27.579Z,99079.75
2023-05-19T11:54:56.952Z,99083.84
2023-05-19T11:57:25.842Z,99088.31
2023-05-19T11:59:56.839Z,99084.22
2023-05-19T12:02:28.003Z,99083.75
2023-05-19T12:04:56.924Z,99084.41
2023-05-19T12:07:26.606Z,99080.63
2023-05-19T12:09:56.560Z,99083.06
2023-05-19T12:12:25.271Z,99092.47
2023-05-19T12:14:54.015Z,99089.13
2023-05-19T12:17:24.315Z,99092.91
2023-05-19T12:19:54.439Z,99084.97
2023-05-19T12:22:23.139Z,99080.13
2023-05-19T12:24:52.827Z,99087.97
2023-05-19T12:27:24.489Z,99070.75
2023-05-19T12:29:53.354Z,99079.69
2023-05-19T12:32:25.626Z,99064.22
2023-05-19T12:34:57.214Z,99061.31
2023-05-19T12:37:30.261Z,99064.31
2023-05-19T12:39:58.682Z,99059.53
2023-05-19T12:42:31.375Z,99063.53
2023-05-19T12:45:03.144Z,99060.03
2023-05-19T12:47:34.939Z,99060.00
2023-05-19T12:50:06.042Z,99059.09
2023-05-19T12:52:37.413Z,99070.41
2023-05-19T12:55:07.913Z,99071.94
2023-05-19T12:57:36.946Z,99067.56
2023-05-19T13:00:08.615Z,99066.91
2023-05-19T13:02:38.384Z,99061.38
2023-05-19T13:05:09.339Z,99057.59
2023-05-19T13:07:37.889Z,99069.84
2023-05-19T13:10:07.111Z,99052.84
2023-05-19T13:12:35.997Z,99060.34
2023-05-19T13:15:04.932Z,99051.66
2023-05-19T13:17:34.913Z,99055.59
2023-05-19T13:20:03.922Z,99049.88
2023-05-19T13:22:34.237Z,99058.72
2023-05-19T13:25:02.787Z,99063.47
2023-05-19T13:27:31.413Z,99051.50
2023-05-19T13:29:59.979Z,99052.00
2023-05-19T13:32:28.659Z,99061.81
2023-05-19T13:34:57.801Z,99049.72
2023-05-19T13:37:28.458Z,99046.44
2023-05-19T13:39:58.696Z,99056.25
2023-05-19T13:42:27.407Z,99048.94
2023-05-19T13:44:56.443Z,99042.88
2023-05-19T13:47:25.658Z,99044.84
2023-05-19T13:49:54.901Z,99043.53
2023-05-19T13:52:23.529Z,99045.78
2023-05-19T13:54:54.767Z,99048.22
2023-05-19T13:57:25.713Z,99042.06
2023-05-19T14:00:02.822Z,99053.09
2023-05-19T14:02:32.872Z,99047.94
2023-05-19T14:05:01.328Z,99047.19
2023-05-19T14:07:30.563Z,99052.97
2023-05-19T14:09:59.063Z,99047.19
2023-05-19T14:12:41.375Z,99056.91
2023-05-19T14:15:16.079Z,99061.22
2023-05-19T14:17:44.855Z,99064.53
2023-05-19T14:20:13.844Z,99050.00
2023-05-19T14:22:42.384Z,99058.16
2023-05-19T14:25:11.152Z,99068.34
2023-05-19T14:27:41.325Z,99070.03
2023-05-19T14:30:10.823Z,99062.03
2023-05-19T14:32:39.672Z,99066.75
2023-05-19T14:35:09.132Z,99065.78
2023-05-19T14:37:37.786Z,99069.03
2023-05-19T14:40:07.025Z,99070.97
2023-05-19T14:42:35.587Z,99075.84
2023-05-19T14:45:05.700Z,99073.94
2023-05-19T14:47:34.380Z,99070.06
2023-05-19T14:50:02.764Z,99065.72
2023-05-19T14:52:31.659Z,99066.69
2023-05-19T14:55:01.164Z,99066.09
2023-05-19T14:57:29.876Z,99073.84
2023-05-19T14:59:58.461Z,99069.03
2023-05-19T15:02:29.791Z,99061.47
2023-05-19T15:04:58.245Z,99051.88
2023-05-19T15:07:27.630Z,99059.31
2023-05-19T15:09:56.096Z,99057.94
2023-05-19T15:12:24.946Z,99058.63
2023-05-19T15:14:53.612Z,99060.44
2023-05-19T15:17:22.327Z,99065.19
2023-05-19T15:19:52.322Z,99069.69
2023-05-19T15:22:21.303Z,99061.22
2023-05-19T15:24:49.829Z,99064.31
2023-05-19T15:27:18.501Z,99061.56
2023-05-19T15:29:46.875Z,99059.94
2023-05-19T15:32:15.451Z,99069.41
2023-05-19T15:34:44.209Z,99060.03
2023-05-19T15:37:14.257Z,99061.22
2023-05-19T15:39:42.725Z,99059.97
2023-05-19T15:42:11.378Z,99064.94
2023-05-19T15:44:39.711Z,99055.56
2023-05-19T15:47:08.255Z,99051.41
2023-05-19T15:49:36.670Z,99055.81
2023-05-19T15:52:05.628Z,99047.53
2023-05-19T15:54:35.854Z,99062.06
2023-05-19T15:57:04.553Z,99059.97
2023-05-19T15:59:32.883Z,99059.53
2023-05-19T16:02:01.949Z,99056.06
2023-05-19T16:04:30.378Z,99057.88
2023-05-19T16:06:59.548Z,99053.81
2023-05-19T16:09:27.917Z,99058.13
2023-05-19T16:12:01.220Z,99068.31
2023-05-19T16:14:31.167Z,99058.09
2023-05-19T16:17:01.532Z,99057.31
2023-05-19T16:19:29.902Z,99051.47
2023-05-19T16:21:58.491Z,99061.28
2023-05-19T16:24:28.567Z,99068.16
2023-05-19T16:26:57.138Z,99079.31
2023-05-19T16:29:26.902Z,99074.50
2023-05-19T16:31:55.430Z,99079.16
2023-05-19T16:34:23.890Z,99072.22
2023-05-19T16:36:52.625Z,99076.31
2023-05-19T16:39:21.101Z,99086.00
2023-05-19T16:41:50.504Z,99080.13
2023-05-19T16:44:19.055Z,99065.88
2023-05-19T16:46:48.951Z,99076.50
2023-05-19T16:49:17.329Z,99066.00
2023-05-19T16:51:47.532Z,99072.94
2023-05-19T16:54:17.304Z,99072.84
2023-05-19T16:56:46.284Z,99080.09
2023-05-19T16:59:14.727Z,99075.38
2023-05-19T17:01:43.280Z,99085.28
2023-05-19T17:04:13.341Z,99078.22
2023-05-19T17:06:42.026Z,99080.00
2023-05-19T17:09:10.219Z,99083.94
2023-05-19T17:11:39.058Z,99080.53
2023-05-19T17:14:09.272Z,99086.56
2023-05-19T17:16:38.301Z,99089.03
2023-05-19T17:19:06.841Z,99084.88
2023-05-19T17:21:36.786Z,99078.56
2023-05-19T17:24:05.274Z,99073.88
2023-05-19T17:26:34.111Z,99073.50
2023-05-19T17:29:02.280Z,99078.72
2023-05-19T17:31:30.958Z,99075.34
2023-05-19T17:33:59.333Z,99079.88
2023-05-19T17:36:28.036Z,99081.72
2023-05-19T17:38:57.900Z,99082.97
2023-05-19T17:41:26.490Z,99083.09
2023-05-19T17:43:54.954Z,99095.31
2023-05-19T17:46:23.843Z,99088.56
2023-05-19T17:48:52.209Z,99096.94
2023-05-19T17:51:21.700Z,99105.63
2023-05-19T17:53:50.502Z,99097.75
2023-05-19T17:56:22.255Z,99104.94
2023-05-19T17:58:51.282Z,99102.34
2023-05-19T18:01:23.953Z,99109.78
2023-05-19T18:04:04.794Z,99107.25
2023-05-19T18:06:48.234Z,99103.66
2023-05-19T18:09:18.537Z,99108.50
2023-05-19T18:11:52.110Z,99114.44
2023-05-19T18:14:41.954Z,99113.53
2023-05-19T18:17:27.335Z,99111.94
2023-05-19T18:19:59.075Z,99103.53
2023-05-19T18:22:27.765Z,99107.94
2023-05-19T18:24:57.633Z,99106.53
2023-05-19T18:27:33.799Z,99119.25
2023-05-19T18:30:02.177Z,99120.81
2023-05-19T18:32:50.437Z,99119.88
2023-05-19T18:35:20.816Z,99123.06
2023-05-19T18:37:49.593Z,99117.41
2023-05-19T18:40:18.151Z,99121.31
2023-05-19T18:42:48.345Z,99125.53
2023-05-19T18:45:17.134Z,99130.22
2023-05-19T18:47:45.897Z,99125.94
2023-05-19T18:50:14.612Z,99133.66
2023-05-19T18:52:43.775Z,99131.03
2023-05-19T18:55:12.166Z,99145.41
2023-05-19T18:57:42.119Z,99135.63
2023-05-19T19:00:13.638Z,99143.03
2023-05-19T19:02:42.420Z,99141.41
2023-05-19T19:05:11.283Z,99142.25
2023-05-19T19:07:41.414Z,99137.69
2023-05-19T19:10:28.680Z,99139.69
2023-05-19T19:13:08.399Z,99141.41
2023-05-19T19:15:45.049Z,99148.91
2023-05-19T19:18:14.262Z,99147.44
2023-05-19T19:20:42.996Z,99143.31
2023-05-19T19:23:11.806Z,99148.84
2023-05-19T19:25:40.247Z,99156.50
2023-05-19T19:28:10.740Z,99138.91
2023-05-19T19:30:47.751Z,99144.03
2023-05-19T19:33:19.307Z,99146.78
2023-05-19T19:36:00.765Z,99136.25
2023-05-19T19:38:29.718Z,99148.63
2023-05-19T19:40:58.194Z,99135.84
2023-05-19T19:43:27.132Z,99140.81
2023-05-19T19:46:01.830Z,99137.31
2023-05-19T19:48:30.641Z,99134.72
2023-05-19T19:50:59.176Z,99145.63
2023-05-19T19:53:28.255Z,99143.97
2023-05-19T19:56:00.110Z,99136.75
2023-05-19T19:58:29.543Z,99136.25
2023-05-19T20:00:58.839Z,99130.78
2023-05-19T20:03:29.638Z,99131.28
2023-05-19T20:05:58.135Z,99129.09
2023-05-19T20:08:27.326Z,99135.84
2023-05-19T20:10:56.010Z,99128.34
2023-05-19T20:13:25.601Z,99140.78
2023-05-19T20:15:54.241Z,99139.69
2023-05-19T20:18:23.353Z,99128.34
2023-05-19T20:20:53.070Z,99133.78
2023-05-19T20:26:02.897Z,99133.56
2023-05-19T20:28:38.145Z,99123.47
2023-05-19T20:31:07.139Z,99125.13
2023-05-19T20:33:35.646Z,99129.19
2023-05-19T20:36:06.507Z,99137.53
2023-05-19T20:38:35.054Z,99128.28
2023-05-19T20:41:03.963Z,99131.28
2023-05-19T20:43:33.250Z,99122.81
2023-05-19T20:46:03.863Z,99121.56
2023-05-19T20:48:32.493Z,99123.06
2023-05-19T20:51:00.945Z,99125.25
2023-05-19T20:53:31.335Z,99135.53
2023-05-19T20:55:59.868Z,99124.53
2023-05-19T20:58:30.389Z,99121.13
2023-05-19T21:00:58.770Z,99129.81
2023-05-19T21:03:28.862Z,99133.91
2023-05-19T21:05:57.694Z,99133.84
2023-05-19T21:08:26.609Z,99128.44
2023-05-19T21:10:56.296Z,99127.91
2023-05-19T21:13:24.706Z,99124.81
2023-05-19T21:15:53.581Z,99125.28
2023-05-19T21:18:21.987Z,99131.69
2023-05-19T21:20:50.707Z,99128.56
2023-05-19T21:23:18.967Z,99128.41
2023-05-19T21:25:47.901Z,99124.22
2023-05-19T21:28:17.525Z,99130.03
2023-05-19T21:30:49.215Z,99127.38
2023-05-19T21:33:17.382Z,99123.13
2023-05-19T21:35:46.514Z,99117.00
2023-05-19T21:38:23.238Z,99121.09
2023-05-19T21:40:52.543Z,99122.00
2023-05-19T21:43:22.654Z,99125.81
2023-05-19T21:45:51.746Z,99138.50
2023-05-19T21:48:20.172Z,99132.44
2023-05-19T21:50:54.160Z,99130.38
2023-05-19T21:53:22.539Z,99137.78
2023-05-19T21:55:50.993Z,99134.22
2023-05-19T21:58:19.489Z,99139.75
2023-05-19T22:00:51.300Z,99159.31
2023-05-19T22:03:20.026Z,99140.66
2023-05-19T22:05:50.256Z,99133.84
2023-05-19T22:08:19.201Z,99148.38
2023-05-19T22:10:50.683Z,99143.81
2023-05-19T22:13:19.167Z,99144.59
2023-05-19T22:15:47.968Z,99151.63
2023-05-19T22:18:18.073Z,99145.91
2023-05-19T22:20:46.852Z,99149.69
2023-05-19T22:23:16.015Z,99152.94
2023-05-19T22:25:44.753Z,99147.34
2023-05-19T22:28:13.333Z,99139.59
2023-05-19T22:30:42.867Z,99138.16
2023-05-19T22:33:12.515Z,99127.59
2023-05-19T22:35:43.315Z,99133.38
2023-05-19T22:38:11.894Z,99132.41
2023-05-19T22:40:40.929Z,99130.34
2023-05-19T22:43:09.311Z,99118.25
2023-05-19T22:45:38.555Z,99123.88
2023-05-19T22:48:07.854Z,99132.44
2023-05-19T22:50:36.457Z,99122.78
2023-05-19T22:53:06.553Z,99121.38
2023-05-19T22:55:35.500Z,99115.97
2023-05-19T22:58:04.326Z,99122.53
2023-05-19T23:00:33.322Z,99122.34
2023-05-19T23:03:01.847Z,99114.56
2023-05-19T23:05:30.754Z,99125.66
2023-05-19T23:07:59.143Z,99123.09
2023-05-19T23:10:29.253Z,99113.97
2023-05-19T23:12:57.746Z,99111.16
2023-05-19T23:15:26.186Z,99113.91
2023-05-19T23:17:54.726Z,99113.44
2023-05-19T23:20:23.525Z,99112.41
2023-05-19T23:22:51.921Z,99105.56
2023-05-19T23:25:20.655Z,99113.25
2023-05-19T23:27:50.264Z,99102.44
2023-05-19T23:30:19.530Z,99114.38
2023-05-19T23:32:47.793Z,99115.88
2023-05-19T23:35:18.402Z,99108.22
2023-05-19T23:37:46.914Z,99101.94
2023-05-19T23:40:16.028Z,99102.06
2023-05-19T23:42:45.076Z,99093.16
2023-05-19T23:45:14.999Z,99095.66
2023-05-19T23:47:44.102Z,99088.94
2023-05-19T23:50:13.139Z,99097.59
2023-05-19T23:52:41.522Z,99088.50
2023-05-19T23:55:12.761Z,99087.44
2023-05-19T23:57:41.092Z,99092.78
